createdAt,value
2022-08-20T00:01:14.560Z,5.30
2022-08-20T00:03:44.839Z,5.35
2022-08-20T00:06:23.344Z,5.88
2022-08-20T00:08:51.371Z,5.65
2022-08-20T00:11:25.326Z,5.03
2022-08-20T00:13:56.085Z,4.80
2022-08-20T00:16:25.857Z,5.43
2022-08-20T00:18:53.458Z,5.28
2022-08-20T00:21:21.392Z,5.20
2022-08-20T00:23:51.594Z,5.15
2022-08-20T00:26:20.318Z,5.03
2022-08-20T00:28:47.857Z,5.07
2022-08-20T00:31:19.525Z,4.80
2022-08-20T00:33:47.877Z,4.95
2022-08-20T00:36:17.608Z,5.10
2022-08-20T00:38:46.608Z,5.35
2022-08-20T00:41:24.298Z,5.13
2022-08-20T00:44:05.347Z,5.40
2022-08-20T00:46:32.982Z,5.65
2022-08-20T00:49:03.594Z,5.43
2022-08-20T00:51:44.240Z,5.22
2022-08-20T00:54:29.698Z,5.57
2022-08-20T00:57:02.940Z,5.30
2022-08-20T00:59:32.596Z,5.00
2022-08-20T01:02:02.177Z,5.80
2022-08-20T01:04:33.794Z,5.07
2022-08-20T01:07:02.487Z,5.20
2022-08-20T01:09:49.946Z,5.15
2022-08-20T01:12:17.895Z,5.22
2022-08-20T01:14:46.753Z,5.90
2022-08-20T01:17:20.643Z,5.55
2022-08-20T01:20:10.870Z,4.95
2022-08-20T01:23:01.287Z,5.72
2022-08-20T01:25:55.711Z,5.88
2022-08-20T01:28:32.971Z,5.47
2022-08-20T01:31:00.300Z,5.35
2022-08-20T01:33:27.363Z,5.45
2022-08-20T01:35:55.327Z,5.63
2022-08-20T01:38:22.787Z,5.82
2022-08-20T01:41:11.372Z,6.10
2022-08-20T01:43:40.546Z,5.45
2022-08-20T01:46:11.763Z,5.70
2022-08-20T01:48:40.131Z,5.68
2022-08-20T01:51:29.509Z,5.70
2022-08-20T01:53:59.835Z,6.13
2022-08-20T01:56:31.335Z,5.50
2022-08-20T01:59:02.008Z,5.55
2022-08-20T02:01:45.900Z,6.20
2022-08-20T02:04:15.580Z,5.37
2022-08-20T02:06:56.208Z,5.72
2022-08-20T02:09:33.792Z,5.60
2022-08-20T02:12:00.927Z,5.60
2022-08-20T02:14:29.431Z,6.22
2022-08-20T02:16:58.650Z,5.28
2022-08-20T02:19:40.679Z,6.03
2022-08-20T02:22:22.222Z,5.97
2022-08-20T02:24:49.550Z,5.40
2022-08-20T02:27:18.979Z,5.28
2022-08-20T02:29:46.839Z,5.75
2022-08-20T02:32:32.250Z,5.63
2022-08-20T02:35:03.131Z,6.00
2022-08-20T02:37:30.698Z,5.72
2022-08-20T02:39:57.910Z,6.03
2022-08-20T02:42:25.260Z,5.93
2022-08-20T02:44:53.187Z,5.55
2022-08-20T02:47:20.309Z,5.90
2022-08-20T02:49:47.347Z,6.00
2022-08-20T02:52:14.326Z,6.50
2022-08-20T02:54:41.525Z,6.28
2022-08-20T02:57:17.547Z,5.57
2022-08-20T02:59:45.580Z,6.00
2022-08-20T03:02:13.071Z,6.05
2022-08-20T03:04:40.088Z,6.20
2022-08-20T03:07:07.648Z,5.53
2022-08-20T03:09:34.708Z,5.75
2022-08-20T03:12:03.204Z,6.25
2022-08-20T03:14:30.791Z,5.93
2022-08-20T03:16:57.745Z,5.70
2022-08-20T03:19:24.767Z,5.43
2022-08-20T03:21:51.990Z,6.25
2022-08-20T03:24:19.316Z,5.30
2022-08-20T03:26:46.407Z,6.10
2022-08-20T03:29:13.656Z,5.95
2022-08-20T03:31:40.983Z,6.03
2022-08-20T03:34:15.397Z,6.55
2022-08-20T03:36:42.941Z,5.90
2022-08-20T03:39:13.353Z,5.78
2022-08-20T03:41:40.620Z,5.85
2022-08-20T03:44:07.763Z,5.65
2022-08-20T03:46:35.266Z,5.95
2022-08-20T03:49:02.282Z,6.00
2022-08-20T03:51:30.695Z,5.93
2022-08-20T03:53:58.432Z,6.00
2022-08-20T03:56:26.254Z,5.57
2022-08-20T03:58:53.395Z,5.97
2022-08-20T04:01:45.697Z,6.75
2022-08-20T04:04:12.455Z,5.75
2022-08-20T04:06:43.688Z,5.93
2022-08-20T04:09:11.792Z,5.38
2022-08-20T04:11:40.246Z,6.30
2022-08-20T04:14:07.711Z,5.72
2022-08-20T04:16:37.817Z,6.25
2022-08-20T04:19:05.421Z,5.97
2022-08-20T04:21:33.943Z,6.10
2022-08-20T04:24:03.066Z,6.20
2022-08-20T04:26:31.958Z,5.68
2022-08-20T04:28:58.932Z,5.90
2022-08-20T04:31:33.096Z,6.10
2022-08-20T04:34:04.973Z,6.35
2022-08-20T04:36:31.964Z,6.35
2022-08-20T04:39:00.087Z,6.00
2022-08-20T04:41:27.236Z,6.70
2022-08-20T04:43:56.010Z,6.05
2022-08-20T04:46:28.131Z,6.15
2022-08-20T04:48:56.737Z,6.65
2022-08-20T04:51:24.400Z,6.65
2022-08-20T04:53:54.086Z,6.28
2022-08-20T04:56:26.139Z,6.25
2022-08-20T04:58:57.285Z,6.30
2022-08-20T05:01:24.441Z,6.65
2022-08-20T05:03:54.963Z,6.53
2022-08-20T05:06:32.178Z,6.72
2022-08-20T05:09:00.745Z,6.30
2022-08-20T05:11:35.209Z,6.70
2022-08-20T05:14:06.053Z,6.38
2022-08-20T05:16:38.359Z,6.45
2022-08-20T05:19:08.105Z,5.88
2022-08-20T05:21:35.055Z,6.72
2022-08-20T05:24:03.063Z,5.90
2022-08-20T05:26:30.193Z,6.30
2022-08-20T05:28:59.086Z,6.32
2022-08-20T05:31:31.257Z,6.10
2022-08-20T05:34:12.014Z,6.30
2022-08-20T05:36:49.816Z,6.47
2022-08-20T05:39:18.346Z,6.40
2022-08-20T05:41:51.203Z,6.55
2022-08-20T05:44:20.049Z,6.63
2022-08-20T05:46:47.772Z,6.40
2022-08-20T05:49:20.751Z,6.40
2022-08-20T05:51:49.548Z,6.13
2022-08-20T05:54:16.609Z,6.47
2022-08-20T05:56:43.745Z,5.85
2022-08-20T05:59:12.613Z,6.75
2022-08-20T06:01:42.114Z,7.00
2022-08-20T06:04:26.735Z,6.55
2022-08-20T06:07:05.429Z,6.35
2022-08-20T06:09:33.099Z,6.65
2022-08-20T06:12:09.091Z,6.20
2022-08-20T06:14:36.396Z,5.95
2022-08-20T06:17:23.456Z,5.90
2022-08-20T06:19:50.673Z,5.90
2022-08-20T06:22:21.737Z,6.07
2022-08-20T06:24:55.153Z,5.85
2022-08-20T06:27:22.546Z,6.63
2022-08-20T06:29:50.401Z,6.13
2022-08-20T06:32:18.351Z,5.97
2022-08-20T06:34:50.173Z,5.82
2022-08-20T06:37:31.684Z,5.97
2022-08-20T06:40:13.015Z,6.00
2022-08-20T06:42:48.138Z,6.07
2022-08-20T06:45:21.922Z,6.38
2022-08-20T06:47:48.826Z,6.60
2022-08-20T06:50:22.529Z,5.93
2022-08-20T06:52:51.972Z,5.78
2022-08-20T06:55:21.453Z,6.18
2022-08-20T06:57:55.683Z,5.68
2022-08-20T07:00:23.494Z,6.45
2022-08-20T07:02:50.486Z,5.88
2022-08-20T07:05:17.621Z,6.10
2022-08-20T07:07:49.621Z,5.18
2022-08-20T07:10:18.525Z,5.75
2022-08-20T07:12:47.036Z,5.80
2022-08-20T07:15:15.003Z,6.30
2022-08-20T07:17:42.603Z,5.93
2022-08-20T07:20:14.001Z,6.05
2022-08-20T07:22:42.390Z,6.75
2022-08-20T07:25:12.739Z,5.82
2022-08-20T07:27:39.984Z,6.35
2022-08-20T07:30:28.364Z,5.82
2022-08-20T07:32:55.741Z,6.07
2022-08-20T07:35:22.847Z,5.55
2022-08-20T07:37:52.357Z,5.78
2022-08-20T07:40:26.069Z,6.45
2022-08-20T07:42:54.906Z,5.57
2022-08-20T07:45:23.011Z,5.90
2022-08-20T07:47:50.798Z,5.78
2022-08-20T07:50:20.605Z,5.72
2022-08-20T07:52:48.764Z,5.55
2022-08-20T07:55:16.631Z,6.00
2022-08-20T07:57:47.110Z,6.45
2022-08-20T08:00:15.241Z,6.10
2022-08-20T08:02:42.634Z,5.35
2022-08-20T08:05:10.423Z,5.72
2022-08-20T08:07:39.541Z,5.75
2022-08-20T08:10:14.000Z,5.70
2022-08-20T08:12:45.418Z,5.53
2022-08-20T08:15:20.164Z,6.75
2022-08-20T08:17:48.930Z,6.25
2022-08-20T08:20:17.423Z,6.43
2022-08-20T08:22:44.522Z,6.00
2022-08-20T08:25:13.122Z,5.40
2022-08-20T08:27:41.061Z,6.43
2022-08-20T08:30:10.653Z,6.05
2022-08-20T08:32:58.277Z,6.50
2022-08-20T08:35:26.216Z,5.93
2022-08-20T08:37:54.131Z,6.60
2022-08-20T08:40:24.161Z,5.68
2022-08-20T08:42:58.524Z,6.15
2022-08-20T08:45:34.202Z,5.80
2022-08-20T08:48:02.027Z,5.90
2022-08-20T08:50:53.611Z,5.40
2022-08-20T08:53:28.026Z,5.82
2022-08-20T08:55:55.551Z,8.25
2022-08-20T08:58:22.956Z,6.68
2022-08-20T09:00:56.620Z,5.43
2022-08-20T09:03:33.189Z,5.82
2022-08-20T09:06:02.316Z,5.78
2022-08-20T09:08:47.891Z,5.88
2022-08-20T09:11:16.254Z,5.75
2022-08-20T09:13:43.623Z,6.05
2022-08-20T09:16:14.662Z,5.72
2022-08-20T09:18:42.127Z,5.30
2022-08-20T09:21:09.774Z,5.05
2022-08-20T09:23:37.460Z,5.80
2022-08-20T09:26:04.557Z,5.95
2022-08-20T09:28:32.258Z,6.32
2022-08-20T09:31:02.509Z,5.55
2022-08-20T09:33:29.575Z,5.43
2022-08-20T09:35:56.544Z,5.40
2022-08-20T09:38:23.576Z,5.50
2022-08-20T09:40:50.860Z,5.53
2022-08-20T09:43:17.800Z,6.03
2022-08-20T09:45:44.717Z,5.28
2022-08-20T09:48:11.795Z,5.45
2022-08-20T09:50:46.605Z,5.50
2022-08-20T09:53:14.382Z,6.68
2022-08-20T09:55:45.235Z,5.70
2022-08-20T09:58:30.952Z,5.70
2022-08-20T10:01:01.450Z,5.63
2022-08-20T10:03:28.432Z,5.43
2022-08-20T10:05:55.396Z,5.20
2022-08-20T10:08:22.376Z,5.40
2022-08-20T10:10:49.354Z,5.40
2022-08-20T10:13:16.291Z,4.95
2022-08-20T10:15:43.603Z,5.43
2022-08-20T10:18:12.338Z,5.70
2022-08-20T10:20:39.803Z,6.13
2022-08-20T10:23:07.205Z,6.10
2022-08-20T10:25:34.309Z,5.60
2022-08-20T10:28:01.519Z,6.28
2022-08-20T10:30:28.576Z,6.10
2022-08-20T10:32:55.804Z,5.50
2022-08-20T10:35:22.850Z,6.50
2022-08-20T10:37:50.064Z,6.00
2022-08-20T10:40:17.330Z,5.90
2022-08-20T10:42:44.978Z,5.82
2022-08-20T10:45:16.455Z,5.68
2022-08-20T10:47:44.169Z,5.60
2022-08-20T10:50:15.094Z,5.72
2022-08-20T10:52:42.377Z,5.97
2022-08-20T10:57:41.244Z,5.43
2022-08-20T11:00:13.725Z,5.45
2022-08-20T11:02:40.907Z,5.90
2022-08-20T11:05:08.395Z,5.75
2022-08-20T11:07:54.922Z,6.50
2022-08-20T11:10:26.403Z,5.93
2022-08-20T11:12:53.839Z,6.18
2022-08-20T11:15:20.916Z,6.00
2022-08-20T11:17:48.117Z,5.63
2022-08-20T11:20:19.281Z,6.32
2022-08-20T11:22:46.745Z,6.10
2022-08-20T11:25:14.068Z,6.05
2022-08-20T11:27:45.210Z,6.32
2022-08-20T11:30:22.481Z,6.20
2022-08-20T11:32:49.790Z,6.28
2022-08-20T11:38:05.051Z,6.47
2022-08-20T11:40:32.282Z,6.18
2022-08-20T11:43:16.259Z,7.07
2022-08-20T11:45:49.779Z,6.80
2022-08-20T11:48:18.319Z,7.10
2022-08-20T11:50:45.940Z,6.55
2022-08-20T11:53:13.246Z,6.72
2022-08-20T11:55:42.737Z,7.13
2022-08-20T11:58:13.273Z,7.20
2022-08-20T12:00:40.968Z,9.00
2022-08-20T12:03:10.308Z,8.45
2022-08-20T12:05:41.003Z,7.07
2022-08-20T12:08:08.713Z,7.25
2022-08-20T12:10:37.312Z,6.75
2022-08-20T12:13:05.318Z,7.40
2022-08-20T12:15:33.998Z,7.38
2022-08-20T12:18:01.448Z,7.05
2022-08-20T12:23:13.510Z,9.13
2022-08-20T12:25:40.913Z,7.60
2022-08-20T12:28:15.440Z,7.07
2022-08-20T12:30:42.627Z,7.97
2022-08-20T12:33:09.652Z,7.40
2022-08-20T12:35:36.938Z,8.07
2022-08-20T12:38:05.682Z,7.38
2022-08-20T12:40:33.698Z,7.25
2022-08-20T12:43:07.509Z,7.38
2022-08-20T12:45:36.267Z,7.68
2022-08-20T12:48:09.803Z,7.47
2022-08-20T12:50:38.912Z,7.50
2022-08-20T12:53:06.647Z,7.22
2022-08-20T12:55:34.764Z,7.18
2022-08-20T12:58:04.260Z,7.10
2022-08-20T13:00:34.803Z,7.22
2022-08-20T13:03:03.871Z,7.20
2022-08-20T13:05:32.479Z,7.10
2022-08-20T13:07:59.544Z,7.40
2022-08-20T13:10:30.415Z,6.97
2022-08-20T13:12:58.033Z,7.15
2022-08-20T13:15:25.250Z,6.80
2022-08-20T13:17:59.578Z,7.72
2022-08-20T13:20:34.053Z,7.38
2022-08-20T13:25:29.537Z,6.57
2022-08-20T13:27:58.866Z,6.93
2022-08-20T13:30:26.307Z,7.03
2022-08-20T13:32:53.539Z,6.53
2022-08-20T13:35:20.852Z,6.72
2022-08-20T13:37:51.021Z,7.20
2022-08-20T13:40:18.753Z,6.43
2022-08-20T13:42:46.052Z,6.93
2022-08-20T13:45:13.282Z,5.88
2022-08-20T13:47:42.602Z,5.15
2022-08-20T13:50:20.127Z,4.18
2022-08-20T13:52:47.338Z,3.75
2022-08-20T13:55:18.289Z,3.70
2022-08-20T13:57:46.637Z,3.53
2022-08-20T14:00:17.815Z,3.47
2022-08-20T14:02:45.054Z,3.33
2022-08-20T14:05:14.303Z,3.70
2022-08-20T14:07:47.078Z,4.78
2022-08-20T14:10:18.505Z,5.13
2022-08-20T14:12:46.739Z,6.35
2022-08-20T14:15:14.239Z,5.90
2022-08-20T14:17:49.264Z,6.28
2022-08-20T14:20:22.469Z,6.45
2022-08-20T14:22:49.680Z,6.78
2022-08-20T14:25:18.694Z,6.85
2022-08-20T14:27:48.282Z,6.65
2022-08-20T14:30:19.462Z,6.80
2022-08-20T14:32:47.640Z,7.75
2022-08-20T14:35:15.299Z,7.20
2022-08-20T14:37:46.708Z,6.93
2022-08-20T14:40:17.129Z,7.53
2022-08-20T14:42:45.854Z,7.55
2022-08-20T14:45:19.329Z,8.35
2022-08-20T14:47:55.262Z,8.18
2022-08-20T14:50:30.168Z,8.13
2022-08-20T14:52:58.934Z,7.60
2022-08-20T14:55:29.795Z,9.07
2022-08-20T14:57:56.835Z,8.40
2022-08-20T15:00:30.264Z,9.73
2022-08-20T15:02:58.056Z,8.68
2022-08-20T15:05:25.529Z,8.20
2022-08-20T15:07:59.432Z,8.40
2022-08-20T15:10:30.440Z,9.15
2022-08-20T15:12:58.699Z,9.10
2022-08-20T15:15:26.668Z,8.73
2022-08-20T15:17:56.753Z,9.27
2022-08-20T15:20:26.870Z,9.38
2022-08-20T15:22:54.540Z,9.07
2022-08-20T15:25:24.743Z,7.70
2022-08-20T15:27:55.026Z,7.05
2022-08-20T15:32:56.116Z,6.90
2022-08-20T15:35:27.122Z,6.32
2022-08-20T15:37:56.802Z,6.32
2022-08-20T15:40:28.199Z,6.97
2022-08-20T15:42:56.268Z,6.65
2022-08-20T15:45:23.282Z,6.40
2022-08-20T15:51:07.978Z,5.78
2022-08-20T15:53:53.890Z,6.07
2022-08-20T15:56:49.128Z,5.75
2022-08-20T15:59:31.606Z,5.93
2022-08-20T16:02:36.295Z,5.72
2022-08-20T16:05:19.877Z,5.80
2022-08-20T16:08:03.227Z,6.40
2022-08-20T16:10:58.850Z,6.10
2022-08-20T16:13:45.960Z,5.35
2022-08-20T16:24:43.554Z,5.95
2022-08-20T16:27:42.595Z,5.13
2022-08-20T16:30:31.467Z,5.63
2022-08-20T16:33:21.724Z,5.20
2022-08-20T16:36:09.483Z,5.90
2022-08-20T16:38:45.924Z,6.07
2022-08-20T16:41:24.576Z,5.95
2022-08-20T16:43:54.953Z,5.18
2022-08-20T16:46:27.558Z,5.72
2022-08-20T16:48:58.436Z,5.35
2022-08-20T16:51:53.513Z,5.50
2022-08-20T16:54:28.349Z,4.85
2022-08-20T16:57:06.423Z,5.63
2022-08-20T16:59:34.427Z,5.03
2022-08-20T17:02:01.493Z,5.35
2022-08-20T17:04:28.853Z,5.53
2022-08-20T17:07:00.190Z,4.47
2022-08-20T17:09:38.185Z,4.93
2022-08-20T17:12:27.888Z,6.18
2022-08-20T17:14:57.577Z,4.97
2022-08-20T17:17:29.400Z,4.55
2022-08-20T17:20:03.309Z,4.63
2022-08-20T17:22:39.387Z,4.47
2022-08-20T17:25:16.208Z,4.55
2022-08-20T17:27:43.620Z,4.60
2022-08-20T17:30:19.955Z,4.60
2022-08-20T17:32:57.517Z,4.20
2022-08-20T17:35:38.889Z,4.35
2022-08-20T17:38:06.050Z,4.53
2022-08-20T17:40:33.315Z,4.97
2022-08-20T17:43:07.968Z,4.78
2022-08-20T17:45:45.549Z,5.20
2022-08-20T17:48:24.906Z,5.15
2022-08-20T17:50:54.286Z,4.95
2022-08-20T17:53:36.256Z,5.10
2022-08-20T17:56:13.294Z,4.70
2022-08-20T17:59:03.452Z,5.00
2022-08-20T18:01:34.230Z,5.63
2022-08-20T18:04:01.308Z,4.10
2022-08-20T18:06:31.160Z,4.82
2022-08-20T18:09:36.891Z,4.43
2022-08-20T18:12:18.450Z,4.73
2022-08-20T18:15:01.109Z,4.32
2022-08-20T18:17:45.411Z,4.90
2022-08-20T18:20:37.594Z,4.97
2022-08-20T18:23:20.325Z,4.85
2022-08-20T18:26:20.604Z,4.80
2022-08-20T18:28:59.061Z,4.30
2022-08-20T18:31:33.830Z,5.38
2022-08-20T18:34:17.353Z,4.97
2022-08-20T18:37:03.775Z,4.97
2022-08-20T18:39:33.520Z,5.00
2022-08-20T18:45:02.135Z,4.60
2022-08-20T18:47:35.474Z,4.53
2022-08-20T18:50:18.238Z,5.25
2022-08-20T18:52:51.456Z,4.85
2022-08-20T18:55:27.917Z,5.47
2022-08-20T18:57:57.730Z,5.47
2022-08-20T19:00:30.113Z,5.43
2022-08-20T19:03:06.773Z,5.10
2022-08-20T19:05:59.301Z,5.38
2022-08-20T19:08:50.482Z,6.05
2022-08-20T19:11:30.889Z,5.50
2022-08-20T19:14:25.552Z,5.68
2022-08-20T19:17:06.868Z,6.38
2022-08-20T19:19:34.377Z,6.00
2022-08-20T19:22:02.734Z,4.85
2022-08-20T19:24:34.058Z,4.88
2022-08-20T19:27:04.855Z,4.95
2022-08-20T19:29:40.204Z,5.05
2022-08-20T19:34:36.310Z,4.95
2022-08-20T19:37:35.009Z,5.00
2022-08-20T19:39:58.022Z,5.18
2022-08-20T19:42:30.011Z,4.85
2022-08-20T19:45:03.913Z,4.25
2022-08-20T19:47:51.950Z,4.82
2022-08-20T19:50:31.083Z,4.70
2022-08-20T19:53:30.422Z,4.68
2022-08-20T19:56:05.607Z,4.80
2022-08-20T19:58:34.221Z,4.95
2022-08-20T20:01:03.447Z,5.05
2022-08-20T20:03:39.408Z,4.55
2022-08-20T20:06:18.368Z,5.20
2022-08-20T20:12:02.512Z,4.70
2022-08-20T20:17:33.423Z,5.38
2022-08-20T20:20:14.718Z,4.80
2022-08-20T20:23:38.494Z,5.00
2022-08-20T20:26:17.745Z,4.85
2022-08-20T20:28:48.514Z,4.90
2022-08-20T20:31:27.850Z,4.97
2022-08-20T20:34:03.467Z,5.03
2022-08-20T20:36:36.879Z,4.65
2022-08-20T20:39:32.074Z,5.15
2022-08-20T20:42:01.546Z,5.35
2022-08-20T20:44:37.615Z,4.57
2022-08-20T20:47:12.350Z,4.95
2022-08-20T20:49:55.309Z,5.55
2022-08-20T20:52:32.112Z,4.70
2022-08-20T20:55:27.056Z,4.63
2022-08-20T20:57:54.919Z,4.60
2022-08-20T21:03:46.749Z,4.47
2022-08-20T21:06:13.990Z,4.55
2022-08-20T21:08:42.847Z,4.60
2022-08-20T21:11:29.814Z,5.18
2022-08-20T21:13:56.907Z,4.72
2022-08-20T21:16:24.023Z,4.80
2022-08-20T21:18:51.845Z,5.10
2022-08-20T21:21:19.336Z,4.57
2022-08-20T21:23:46.408Z,5.15
2022-08-20T21:28:40.700Z,5.43
2022-08-20T21:31:08.562Z,5.03
2022-08-20T21:33:36.090Z,5.20
2022-08-20T21:36:03.664Z,6.15
2022-08-20T21:38:30.682Z,5.00
2022-08-20T21:40:59.125Z,5.05
2022-08-20T21:43:27.654Z,5.45
2022-08-20T21:46:02.323Z,4.95
2022-08-20T21:48:30.460Z,5.50
2022-08-20T21:50:57.555Z,4.95
2022-08-20T21:53:25.003Z,5.30
2022-08-20T21:55:52.539Z,4.90
2022-08-20T21:58:21.287Z,5.68
2022-08-20T22:00:55.395Z,5.90
2022-08-20T22:03:26.408Z,5.30
2022-08-20T22:05:54.010Z,5.38
2022-08-20T22:08:28.160Z,4.72
2022-08-20T22:10:57.414Z,5.20
2022-08-20T22:13:31.705Z,5.20
2022-08-20T22:16:08.723Z,5.50
2022-08-20T22:18:36.150Z,4.53
2022-08-20T22:21:08.282Z,4.75
2022-08-20T22:23:36.256Z,4.63
2022-08-20T22:26:08.163Z,5.38
2022-08-20T22:28:35.958Z,4.60
2022-08-20T22:31:04.122Z,4.93
2022-08-20T22:33:33.257Z,5.15
2022-08-20T22:36:01.467Z,4.90
2022-08-20T22:38:29.600Z,4.85
2022-08-20T22:40:57.478Z,4.75
2022-08-20T22:43:25.353Z,5.05
2022-08-20T22:45:55.972Z,5.20
2022-08-20T22:48:23.819Z,5.25
2022-08-20T22:50:51.675Z,4.93
2022-08-20T22:53:21.228Z,4.85
2022-08-20T22:55:52.703Z,4.85
2022-08-20T22:58:20.441Z,4.65
2022-08-20T23:00:59.905Z,4.65
2022-08-20T23:03:29.811Z,4.75
2022-08-20T23:06:12.653Z,4.82
2022-08-20T23:08:42.870Z,4.47
2022-08-20T23:11:10.151Z,4.45
2022-08-20T23:13:37.979Z,4.40
2022-08-20T23:16:07.818Z,4.65
2022-08-20T23:18:35.429Z,4.55
2022-08-20T23:21:02.665Z,4.10
2022-08-20T23:23:30.508Z,4.47
2022-08-20T23:25:57.937Z,4.57
2022-08-20T23:28:25.639Z,4.40
2022-08-20T23:30:53.256Z,4.97
2022-08-20T23:33:21.971Z,5.30
2022-08-20T23:35:51.801Z,4.90
2022-08-20T23:38:21.161Z,4.53
2022-08-20T23:40:48.502Z,5.05
2022-08-20T23:43:16.398Z,4.88
2022-08-20T23:45:45.992Z,5.07
2022-08-20T23:48:16.460Z,4.93
2022-08-20T23:50:43.645Z,5.18
2022-08-20T23:53:10.869Z,4.53
2022-08-20T23:55:37.957Z,4.90
2022-08-20T23:58:05.097Z,4.90
